createdAt,value
2018-11-21T00:01:23.869Z,2.80
2018-11-21T00:03:52.124Z,2.70
2018-11-21T00:06:23.294Z,2.70
2018-11-21T00:08:51.599Z,2.60
2018-11-21T00:11:19.900Z,2.70
2018-11-21T00:13:48.100Z,2.80
2018-11-21T00:16:16.341Z,2.80
2018-11-21T00:18:44.649Z,2.80
2018-11-21T00:21:12.872Z,2.80
2018-11-21T00:23:41.128Z,2.70
2018-11-21T00:26:09.352Z,2.80
2018-11-21T00:28:37.566Z,2.70
2018-11-21T00:31:06.253Z,2.70
2018-11-21T00:33:34.507Z,2.80
2018-11-21T00:36:02.757Z,2.70
2018-11-21T00:38:30.979Z,2.70
2018-11-21T00:40:59.188Z,2.70
2018-11-21T00:43:27.429Z,2.80
2018-11-21T00:45:58.650Z,2.80
2018-11-21T00:48:26.878Z,2.80
2018-11-21T00:50:55.488Z,2.80
2018-11-21T00:53:23.729Z,2.80
2018-11-21T00:55:51.939Z,2.80
2018-11-21T00:58:20.218Z,2.70
2018-11-21T01:00:48.528Z,2.70
2018-11-21T01:03:16.767Z,2.80
2018-11-21T01:05:45.088Z,2.90
2018-11-21T01:08:13.275Z,3.00
2018-11-21T01:10:41.596Z,3.00
2018-11-21T01:13:09.839Z,3.00
2018-11-21T01:15:38.049Z,3.00
2018-11-21T01:18:06.336Z,3.10
2018-11-21T01:20:34.592Z,3.10
2018-11-21T01:23:02.992Z,3.00
2018-11-21T01:25:31.176Z,2.80
2018-11-21T01:27:59.373Z,2.80
2018-11-21T01:30:27.752Z,2.90
2018-11-21T01:32:55.961Z,2.90
2018-11-21T01:35:24.189Z,2.80
2018-11-21T01:37:52.421Z,2.80
2018-11-21T01:40:20.700Z,2.80
2018-11-21T01:42:48.881Z,2.90
2018-11-21T01:45:17.136Z,3.00
2018-11-21T01:47:45.357Z,3.10
2018-11-21T01:50:13.576Z,3.00
2018-11-21T01:52:41.794Z,3.00
2018-11-21T01:55:10.007Z,3.00
2018-11-21T01:57:38.231Z,3.00
2018-11-21T02:00:08.278Z,3.00
2018-11-21T02:02:36.499Z,3.10
2018-11-21T02:05:04.779Z,3.10
2018-11-21T02:07:33.002Z,3.20
2018-11-21T02:10:01.269Z,3.20
2018-11-21T02:12:29.482Z,3.30
2018-11-21T02:14:57.817Z,3.30
2018-11-21T02:17:26.033Z,3.30
2018-11-21T02:19:54.367Z,3.30
2018-11-21T02:22:22.591Z,3.30
2018-11-21T02:24:50.840Z,3.30
2018-11-21T02:27:19.090Z,3.30
2018-11-21T02:29:47.317Z,3.30
2018-11-21T02:32:15.518Z,3.30
2018-11-21T02:34:43.721Z,3.30
2018-11-21T02:37:11.990Z,3.30
2018-11-21T02:39:40.246Z,3.30
2018-11-21T02:42:08.538Z,3.40
2018-11-21T02:44:36.744Z,3.40
2018-11-21T02:47:04.977Z,3.40
2018-11-21T02:49:33.165Z,3.30
2018-11-21T02:52:01.395Z,3.30
2018-11-21T02:54:29.592Z,3.30
2018-11-21T02:57:33.690Z,3.30
2018-11-21T03:00:04.722Z,3.30
2018-11-21T03:02:32.923Z,3.30
2018-11-21T03:05:01.127Z,3.20
2018-11-21T03:07:29.367Z,3.10
2018-11-21T03:09:57.598Z,3.20
2018-11-21T03:12:25.846Z,3.20
2018-11-21T03:14:54.020Z,3.20
2018-11-21T03:17:22.229Z,3.20
2018-11-21T03:19:50.559Z,3.20
2018-11-21T03:22:18.776Z,3.20
2018-11-21T03:24:46.978Z,3.30
2018-11-21T03:27:15.183Z,3.30
2018-11-21T03:29:43.460Z,3.30
2018-11-21T03:32:11.626Z,3.20
2018-11-21T03:34:39.820Z,3.10
2018-11-21T03:37:08.043Z,3.10
2018-11-21T03:39:36.243Z,3.10
2018-11-21T03:42:05.377Z,3.20
2018-11-21T03:44:33.602Z,3.20
2018-11-21T03:47:01.850Z,3.20
2018-11-21T03:49:30.045Z,3.20
2018-11-21T03:51:58.311Z,3.30
2018-11-21T03:54:26.576Z,3.30
2018-11-21T03:56:54.762Z,3.30
2018-11-21T03:59:22.996Z,3.30
2018-11-21T04:01:51.272Z,3.30
2018-11-21T04:04:19.522Z,3.30
2018-11-21T04:06:47.700Z,3.20
2018-11-21T04:09:15.976Z,3.20
2018-11-21T04:11:44.232Z,3.10
2018-11-21T04:14:12.460Z,3.20
2018-11-21T04:16:40.664Z,3.20
2018-11-21T04:19:08.902Z,3.20
2018-11-21T04:21:37.097Z,3.20
2018-11-21T04:24:05.784Z,3.20
2018-11-21T04:26:34.023Z,3.30
2018-11-21T04:29:02.252Z,3.30
2018-11-21T04:31:30.429Z,3.30
2018-11-21T04:33:58.647Z,3.30
2018-11-21T04:36:26.844Z,3.20
2018-11-21T04:38:55.093Z,3.10
2018-11-21T04:41:23.326Z,3.00
2018-11-21T04:43:51.578Z,3.00
2018-11-21T04:46:19.856Z,3.00
2018-11-21T04:48:48.068Z,2.90
2018-11-21T04:51:16.321Z,2.90
2018-11-21T04:53:44.562Z,2.90
2018-11-21T04:56:12.803Z,2.90
2018-11-21T04:58:41.077Z,3.00
2018-11-21T05:01:09.337Z,3.10
2018-11-21T05:03:37.601Z,3.20
2018-11-21T05:06:06.106Z,3.20
2018-11-21T05:08:34.411Z,3.20
2018-11-21T05:11:02.662Z,3.20
2018-11-21T05:13:30.968Z,3.20
2018-11-21T05:15:59.200Z,3.20
2018-11-21T05:18:27.386Z,3.30
2018-11-21T05:20:55.640Z,3.30
2018-11-21T05:23:23.840Z,3.30
2018-11-21T05:25:52.186Z,3.30
2018-11-21T05:28:20.400Z,3.30
2018-11-21T05:30:48.651Z,3.30
2018-11-21T05:33:16.946Z,3.30
2018-11-21T05:35:45.141Z,3.30
2018-11-21T05:38:13.435Z,3.30
2018-11-21T05:40:41.829Z,3.40
2018-11-21T05:43:10.051Z,3.30
2018-11-21T05:45:38.307Z,3.30
2018-11-21T05:48:06.748Z,3.30
2018-11-21T05:50:35.026Z,3.30
2018-11-21T05:53:03.263Z,3.30
2018-11-21T05:55:31.517Z,3.30
2018-11-21T05:57:59.713Z,3.30
2018-11-21T06:00:27.989Z,3.40
2018-11-21T06:02:56.243Z,3.40
2018-11-21T06:05:24.500Z,3.40
2018-11-21T06:07:52.697Z,3.40
2018-11-21T06:10:20.948Z,3.40
2018-11-21T06:12:49.188Z,3.40
2018-11-21T06:15:17.423Z,3.30
2018-11-21T06:17:48.301Z,3.30
2018-11-21T06:20:14.667Z,3.30
2018-11-21T06:22:43.321Z,3.30
2018-11-21T06:25:12.090Z,3.30
2018-11-21T06:27:40.421Z,3.30
2018-11-21T06:30:10.303Z,3.30
2018-11-21T06:32:38.611Z,3.30
2018-11-21T06:35:07.430Z,3.40
2018-11-21T06:37:35.799Z,3.40
2018-11-21T06:40:04.364Z,3.40
2018-11-21T06:42:32.616Z,3.30
2018-11-21T06:45:00.835Z,3.30
2018-11-21T06:47:29.036Z,3.30
2018-11-21T06:49:57.288Z,3.30
2018-11-21T06:52:25.559Z,3.20
2018-11-21T06:54:53.896Z,3.10
2018-11-21T06:57:22.111Z,3.20
2018-11-21T06:59:50.322Z,3.20
2018-11-21T07:02:18.571Z,3.30
2018-11-21T07:04:46.794Z,3.20
2018-11-21T07:07:15.070Z,3.30
2018-11-21T07:09:43.293Z,3.30
2018-11-21T07:12:11.546Z,3.20
2018-11-21T07:14:39.751Z,3.00
2018-11-21T07:17:07.981Z,2.80
2018-11-21T07:19:36.225Z,2.80
2018-11-21T07:22:04.594Z,2.80
2018-11-21T07:24:32.831Z,2.90
2018-11-21T07:27:01.343Z,3.00
2018-11-21T07:29:34.451Z,3.10
2018-11-21T07:31:57.780Z,3.10
2018-11-21T07:34:26.008Z,3.10
2018-11-21T07:36:54.233Z,3.10
2018-11-21T07:39:23.627Z,3.20
2018-11-21T07:41:50.707Z,3.10
2018-11-21T07:44:19.001Z,3.00
2018-11-21T07:46:47.231Z,3.00
2018-11-21T07:49:15.437Z,3.00
2018-11-21T07:51:43.644Z,2.90
2018-11-21T07:54:11.888Z,2.80
2018-11-21T07:57:19.194Z,2.80
2018-11-21T08:00:47.789Z,2.80
2018-11-21T08:03:16.225Z,2.80
2018-11-21T08:05:46.983Z,2.90
2018-11-21T08:08:32.867Z,2.90
2018-11-21T08:11:18.591Z,2.90
2018-11-21T08:14:15.200Z,2.90
2018-11-21T08:17:20.760Z,2.90
2018-11-21T08:20:17.220Z,3.10
2018-11-21T08:23:06.493Z,3.20
2018-11-21T08:26:00.670Z,3.30
2018-11-21T08:28:30.054Z,3.30
2018-11-21T08:30:58.294Z,3.40
2018-11-21T08:33:26.732Z,3.40
2018-11-21T08:35:55.009Z,3.40
2018-11-21T08:38:23.304Z,3.50
2018-11-21T08:40:51.497Z,3.50
2018-11-21T08:43:19.735Z,3.50
2018-11-21T08:45:48.029Z,3.50
2018-11-21T08:48:17.149Z,3.50
2018-11-21T08:50:45.488Z,3.50
2018-11-21T08:53:13.723Z,3.50
2018-11-21T08:55:41.954Z,3.50
2018-11-21T08:58:10.292Z,3.50
2018-11-21T09:00:38.597Z,3.40
2018-11-21T09:03:07.221Z,3.30
2018-11-21T09:05:35.554Z,3.20
2018-11-21T09:08:04.104Z,3.10
2018-11-21T09:13:00.284Z,3.20
2018-11-21T09:15:28.660Z,3.20
2018-11-21T09:17:58.298Z,3.30
2018-11-21T09:20:25.326Z,3.40
2018-11-21T09:22:53.562Z,3.50
2018-11-21T09:25:21.785Z,3.60
2018-11-21T09:27:50.013Z,3.70
2018-11-21T09:30:19.523Z,3.70
2018-11-21T09:32:49.062Z,3.70
2018-11-21T09:35:18.218Z,3.70
2018-11-21T09:37:46.497Z,3.70
2018-11-21T09:40:16.714Z,3.70
2018-11-21T09:42:46.250Z,3.80
2018-11-21T09:45:15.672Z,3.80
2018-11-21T09:47:43.929Z,3.80
2018-11-21T09:50:14.635Z,3.70
2018-11-21T09:52:42.963Z,3.80
2018-11-21T09:55:11.418Z,3.80
2018-11-21T09:57:39.899Z,3.80
2018-11-21T10:00:46.551Z,3.70
2018-11-21T10:03:16.518Z,3.70
2018-11-21T10:05:46.131Z,3.70
2018-11-21T10:08:33.114Z,3.70
2018-11-21T10:11:01.395Z,3.30
2018-11-21T10:13:29.724Z,3.10
2018-11-21T10:16:01.038Z,3.20
2018-11-21T10:18:27.009Z,3.20
2018-11-21T10:20:54.573Z,3.10
2018-11-21T10:23:22.848Z,3.00
2018-11-21T10:25:51.122Z,3.00
2018-11-21T10:28:19.339Z,3.00
2018-11-21T10:30:47.573Z,3.10
2018-11-21T10:33:15.827Z,3.10
2018-11-21T10:35:44.001Z,3.20
2018-11-21T10:38:12.486Z,3.30
2018-11-21T10:40:40.901Z,3.30
2018-11-21T10:43:09.179Z,3.30
2018-11-21T10:45:37.401Z,3.20
2018-11-21T10:48:05.770Z,3.20
2018-11-21T10:50:34.068Z,3.20
2018-11-21T10:53:02.323Z,3.20
2018-11-21T10:55:30.999Z,3.20
2018-11-21T10:57:59.281Z,3.30
2018-11-21T11:00:58.660Z,3.30
2018-11-21T11:03:38.164Z,3.40
2018-11-21T11:06:24.006Z,3.60
2018-11-21T11:09:10.088Z,3.50
2018-11-21T11:11:56.038Z,3.40
2018-11-21T11:14:35.092Z,3.30
2018-11-21T11:17:28.303Z,3.20
2018-11-21T11:20:27.883Z,3.30
2018-11-21T11:23:29.978Z,3.40
2018-11-21T11:26:19.905Z,3.50
2018-11-21T11:29:05.732Z,3.60
2018-11-21T11:31:58.932Z,3.70
2018-11-21T11:35:01.079Z,3.80
2018-11-21T11:37:47.254Z,3.80
2018-11-21T11:40:33.146Z,3.80
2018-11-21T11:43:19.080Z,3.90
2018-11-21T11:46:06.495Z,4.00
2018-11-21T11:48:49.924Z,4.00
2018-11-21T11:51:40.205Z,4.00
2018-11-21T11:54:27.632Z,4.00
2018-11-21T11:57:18.007Z,3.90
2018-11-21T12:00:05.453Z,3.80
2018-11-21T12:02:41.841Z,3.80
2018-11-21T12:05:29.572Z,3.90
2018-11-21T12:08:20.103Z,3.90
2018-11-21T12:11:19.454Z,4.00
2018-11-21T12:14:05.807Z,4.00
2018-11-21T12:16:46.603Z,4.00
2018-11-21T12:19:51.950Z,4.00
2018-11-21T12:22:37.597Z,4.00
2018-11-21T12:25:18.785Z,4.00
2018-11-21T12:27:59.733Z,4.00
2018-11-21T12:30:55.937Z,3.80
2018-11-21T12:33:41.922Z,3.80
2018-11-21T12:36:29.039Z,3.80
2018-11-21T12:39:15.241Z,3.90
2018-11-21T12:42:01.033Z,3.90
2018-11-21T12:44:50.808Z,3.90
2018-11-21T12:47:50.340Z,4.00
2018-11-21T12:50:37.799Z,4.00
2018-11-21T12:53:42.921Z,4.10
2018-11-21T12:56:33.099Z,3.70
2018-11-21T12:59:20.524Z,3.50
2018-11-21T13:02:00.302Z,3.50
2018-11-21T13:04:56.786Z,3.60
2018-11-21T13:07:36.669Z,3.70
2018-11-21T13:10:14.583Z,3.70
2018-11-21T13:13:00.224Z,3.60
2018-11-21T13:15:50.498Z,3.60
2018-11-21T13:18:26.990Z,3.70
2018-11-21T13:21:04.860Z,3.70
2018-11-21T13:23:50.914Z,3.60
2018-11-21T13:26:44.275Z,3.70
2018-11-21T13:29:37.596Z,3.70
2018-11-21T13:32:23.597Z,3.80
2018-11-21T13:35:13.181Z,3.70
2018-11-21T13:37:53.946Z,3.80
2018-11-21T13:40:39.786Z,3.90
2018-11-21T13:43:33.119Z,3.80
2018-11-21T13:46:09.146Z,3.80
2018-11-21T13:48:48.830Z,3.90
2018-11-21T13:51:34.797Z,3.90
2018-11-21T13:54:20.625Z,3.70
2018-11-21T13:56:49.695Z,3.50
2018-11-21T13:59:17.999Z,3.60
2018-11-21T14:01:46.229Z,3.70
2018-11-21T14:04:14.495Z,3.70
2018-11-21T14:06:42.757Z,3.80
2018-11-21T14:09:12.387Z,3.90
2018-11-21T14:11:40.667Z,3.90
2018-11-21T14:14:09.731Z,3.80
2018-11-21T14:16:37.960Z,3.80
2018-11-21T14:19:06.359Z,3.80
2018-11-21T14:21:34.613Z,3.80
2018-11-21T14:24:02.919Z,3.80
2018-11-21T14:26:31.130Z,3.90
2018-11-21T14:28:59.879Z,3.80
2018-11-21T14:31:28.104Z,3.80
2018-11-21T14:33:56.379Z,3.80
2018-11-21T14:36:24.660Z,3.80
2018-11-21T14:38:52.911Z,3.70
2018-11-21T14:41:21.139Z,3.80
2018-11-21T14:43:49.404Z,3.80
2018-11-21T14:46:17.630Z,3.70
2018-11-21T14:48:45.835Z,3.70
2018-11-21T14:51:14.208Z,3.60
2018-11-21T14:53:42.987Z,3.60
2018-11-21T14:56:10.659Z,3.60
2018-11-21T14:58:38.866Z,3.50
2018-11-21T15:01:07.138Z,3.50
2018-11-21T15:03:35.343Z,3.50
2018-11-21T15:06:03.616Z,3.50
2018-11-21T15:08:31.967Z,3.50
2018-11-21T15:11:00.195Z,3.50
2018-11-21T15:13:28.405Z,3.50
2018-11-21T15:15:56.660Z,3.60
2018-11-21T15:18:24.891Z,3.50
2018-11-21T15:20:53.127Z,3.50
2018-11-21T15:23:21.341Z,3.50
2018-11-21T15:25:49.578Z,3.50
2018-11-21T15:28:17.816Z,3.40
2018-11-21T15:30:46.113Z,3.40
2018-11-21T15:33:14.452Z,3.40
2018-11-21T15:35:42.703Z,3.40
2018-11-21T15:38:10.961Z,3.40
2018-11-21T15:40:39.246Z,3.40
2018-11-21T15:43:07.493Z,3.40
2018-11-21T15:45:35.790Z,3.40
2018-11-21T15:48:04.043Z,3.40
2018-11-21T15:50:32.835Z,3.40
2018-11-21T15:53:01.065Z,3.40
2018-11-21T15:55:29.369Z,3.40
2018-11-21T15:57:57.601Z,3.40
2018-11-21T16:00:27.522Z,3.30
2018-11-21T16:02:57.577Z,3.30
2018-11-21T16:05:25.945Z,3.30
2018-11-21T16:07:54.250Z,3.40
2018-11-21T16:10:24.370Z,3.40
2018-11-21T16:12:52.594Z,3.30
2018-11-21T16:15:23.485Z,3.40
2018-11-21T16:17:51.728Z,3.40
2018-11-21T16:20:20.174Z,3.30
2018-11-21T16:22:48.407Z,3.30
2018-11-21T16:25:17.877Z,3.40
2018-11-21T16:27:46.206Z,3.40
2018-11-21T16:30:16.228Z,3.50
2018-11-21T16:32:44.662Z,3.40
2018-11-21T16:35:13.290Z,3.40
2018-11-21T16:37:41.877Z,3.40
2018-11-21T16:40:15.594Z,3.40
2018-11-21T16:42:43.885Z,3.50
2018-11-21T16:45:14.240Z,3.50
2018-11-21T16:47:42.482Z,3.50
2018-11-21T16:50:13.086Z,3.40
2018-11-21T16:52:41.418Z,3.40
2018-11-21T16:55:11.489Z,3.40
2018-11-21T16:57:39.734Z,3.40
2018-11-21T17:00:13.123Z,3.40
2018-11-21T17:02:41.357Z,3.50
2018-11-21T17:05:11.039Z,3.40
2018-11-21T17:07:39.510Z,3.30
2018-11-21T17:10:12.458Z,3.40
2018-11-21T17:12:41.097Z,3.40
2018-11-21T17:15:11.316Z,3.40
2018-11-21T17:17:39.559Z,3.40
2018-11-21T17:20:16.374Z,3.40
2018-11-21T17:22:45.311Z,3.40
2018-11-21T17:25:14.968Z,3.50
2018-11-21T17:27:43.832Z,3.50
2018-11-21T17:30:13.823Z,3.50
2018-11-21T17:32:42.051Z,3.40
2018-11-21T17:35:11.483Z,3.40
2018-11-21T17:37:40.053Z,3.40
2018-11-21T17:40:13.646Z,3.30
2018-11-21T17:42:41.856Z,3.30
2018-11-21T17:45:11.024Z,3.40
2018-11-21T17:47:39.314Z,3.40
2018-11-21T17:50:12.579Z,3.40
2018-11-21T17:52:40.809Z,3.50
2018-11-21T17:55:11.351Z,3.40
2018-11-21T17:57:39.680Z,3.30
2018-11-21T18:00:15.939Z,3.30
2018-11-21T18:02:44.269Z,3.30
2018-11-21T18:05:13.966Z,3.30
2018-11-21T18:07:42.452Z,3.30
2018-11-21T18:10:13.069Z,3.30
2018-11-21T18:12:41.559Z,3.30
2018-11-21T18:15:10.862Z,3.30
2018-11-21T18:17:39.208Z,3.40
2018-11-21T18:20:08.963Z,3.40
2018-11-21T18:22:37.295Z,3.30
2018-11-21T18:25:07.692Z,3.30
2018-11-21T18:27:35.973Z,3.30
2018-11-21T18:30:07.255Z,3.30
2018-11-21T18:32:35.480Z,3.30
2018-11-21T18:35:04.129Z,3.30
2018-11-21T18:37:32.506Z,3.40
2018-11-21T18:40:00.752Z,3.40
2018-11-21T18:42:28.998Z,3.40
2018-11-21T18:44:57.253Z,3.40
2018-11-21T18:47:25.530Z,3.40
2018-11-21T18:49:53.743Z,3.40
2018-11-21T18:52:21.961Z,3.40
2018-11-21T18:54:50.367Z,3.30
2018-11-21T18:58:12.885Z,3.30
2018-11-21T19:00:42.129Z,3.30
2018-11-21T19:03:10.667Z,3.20
2018-11-21T19:05:38.920Z,3.20
2018-11-21T19:08:07.264Z,3.20
2018-11-21T19:10:35.584Z,3.10
2018-11-21T19:13:03.949Z,3.00
2018-11-21T19:15:32.205Z,3.00
2018-11-21T19:18:00.490Z,3.00
2018-11-21T19:20:28.755Z,3.00
2018-11-21T19:22:57.349Z,3.10
2018-11-21T19:25:25.608Z,3.10
2018-11-21T19:27:53.892Z,3.10
2018-11-21T19:30:22.096Z,3.10
2018-11-21T19:32:50.668Z,3.10
2018-11-21T19:35:18.923Z,3.10
2018-11-21T19:37:47.217Z,3.10
2018-11-21T19:40:16.020Z,3.10
2018-11-21T19:42:44.317Z,3.10
2018-11-21T19:45:14.302Z,3.10
2018-11-21T19:47:42.739Z,3.10
2018-11-21T19:50:12.803Z,3.10
2018-11-21T19:52:42.244Z,3.10
2018-11-21T19:55:12.719Z,3.10
2018-11-21T19:57:41.680Z,3.10
2018-11-21T20:00:12.260Z,3.10
2018-11-21T20:02:40.618Z,3.10
2018-11-21T20:05:08.867Z,3.10
2018-11-21T20:07:37.506Z,3.10
2018-11-21T20:10:06.798Z,3.20
2018-11-21T20:12:39.829Z,3.20
2018-11-21T20:15:03.343Z,3.20
2018-11-21T20:17:31.662Z,3.20
2018-11-21T20:20:08.131Z,3.20
2018-11-21T20:22:36.373Z,3.20
2018-11-21T20:25:06.417Z,3.20
2018-11-21T20:27:34.703Z,3.20
2018-11-21T20:30:02.925Z,3.20
2018-11-21T20:32:31.174Z,3.20
2018-11-21T20:34:59.400Z,3.20
2018-11-21T20:37:27.627Z,3.10
2018-11-21T20:39:55.896Z,3.10
2018-11-21T20:42:24.106Z,3.10
2018-11-21T20:44:52.494Z,3.20
2018-11-21T20:47:20.729Z,3.10
2018-11-21T20:49:48.979Z,3.20
2018-11-21T20:52:17.224Z,3.20
2018-11-21T20:54:45.438Z,3.10
2018-11-21T20:57:13.643Z,3.10
2018-11-21T20:59:41.953Z,3.00
2018-11-21T21:02:10.200Z,3.00
2018-11-21T21:04:38.734Z,3.00
2018-11-21T21:07:06.972Z,2.90
2018-11-21T21:09:35.320Z,2.90
2018-11-21T21:12:03.613Z,2.90
2018-11-21T21:14:31.848Z,2.90
2018-11-21T21:17:00.069Z,2.80
2018-11-21T21:19:28.297Z,2.80
2018-11-21T21:21:56.861Z,2.80
2018-11-21T21:24:25.127Z,2.90
2018-11-21T21:26:53.356Z,2.90
2018-11-21T21:29:21.734Z,2.90
2018-11-21T21:31:49.957Z,2.90
2018-11-21T21:34:18.533Z,2.90
2018-11-21T21:36:46.816Z,2.80
2018-11-21T21:39:15.171Z,2.80
2018-11-21T21:41:43.477Z,2.80
2018-11-21T21:44:12.017Z,2.90
2018-11-21T21:46:40.261Z,2.70
2018-11-21T21:49:08.532Z,2.70
2018-11-21T21:51:36.749Z,2.70
2018-11-21T21:54:05.065Z,2.70
2018-11-21T21:56:33.334Z,2.70
2018-11-21T21:59:01.665Z,2.60
2018-11-21T22:01:29.942Z,2.60
2018-11-21T22:03:58.176Z,2.70
2018-11-21T22:06:26.400Z,2.80
2018-11-21T22:08:54.617Z,2.80
2018-11-21T22:11:22.860Z,2.80
2018-11-21T22:13:51.082Z,2.80
2018-11-21T22:16:19.328Z,2.80
2018-11-21T22:18:48.548Z,2.80
2018-11-21T22:21:16.811Z,2.90
2018-11-21T22:23:45.041Z,2.80
2018-11-21T22:26:13.295Z,2.90
2018-11-21T22:28:41.547Z,2.90
2018-11-21T22:31:09.801Z,2.90
2018-11-21T22:33:37.989Z,2.90
2018-11-21T22:36:06.339Z,2.90
2018-11-21T22:38:34.554Z,2.80
2018-11-21T22:41:02.816Z,2.80
2018-11-21T22:43:31.037Z,2.80
2018-11-21T22:45:59.271Z,2.70
2018-11-21T22:48:27.502Z,2.70
2018-11-21T22:50:56.092Z,2.80
2018-11-21T22:53:24.381Z,2.70
2018-11-21T22:55:52.724Z,2.80
2018-11-21T22:58:21.076Z,2.70
2018-11-21T23:00:51.058Z,2.70
2018-11-21T23:03:19.633Z,2.80
2018-11-21T23:05:47.891Z,2.80
2018-11-21T23:08:16.172Z,2.80
2018-11-21T23:10:44.451Z,2.80
2018-11-21T23:13:12.649Z,2.80
2018-11-21T23:15:41.078Z,2.90
2018-11-21T23:18:09.422Z,2.90
2018-11-21T23:20:37.695Z,2.90
2018-11-21T23:23:06.082Z,2.90
2018-11-21T23:25:34.418Z,2.90
2018-11-21T23:28:02.691Z,2.90
2018-11-21T23:30:30.952Z,2.90
2018-11-21T23:32:59.216Z,2.90
2018-11-21T23:35:27.432Z,2.90
2018-11-21T23:37:55.714Z,2.90
2018-11-21T23:40:23.924Z,2.90
2018-11-21T23:42:52.263Z,2.80
2018-11-21T23:45:20.504Z,2.80
2018-11-21T23:47:48.755Z,2.80
2018-11-21T23:50:17.959Z,2.80
2018-11-21T23:52:46.188Z,2.80
2018-11-21T23:55:16.548Z,2.80
2018-11-21T23:57:45.068Z,2.70
